Time;durP1;ratioP1;P1;durP2;ratioP2;P2;SDS_P1;SDS_P2;PMS_P1;PMS_P2;Temp;Humidity;BMP_temperature;BMP_pressure;BME280_temperature;BME280_humidity;BME280_pressure;Samples;Min_cycle;Max_cycle;Signal;HPM_P1;HPM_P2
2021/08/01 00:00:13;;;;;;;6.50;3.20;;;;;;;23.61;41.12;101069.13;5034008;28;20026;-83
2021/08/01 00:02:40;;;;;;;7.47;2.67;;;;;;;23.64;40.90;101073.91;5034144;28;20116;-83
2021/08/01 00:05:07;;;;;;;7.68;2.67;;;;;;;23.31;41.55;101068.59;5035691;28;20029;-86
2021/08/01 00:07:34;;;;;;;7.13;3.28;;;;;;;23.46;41.12;101073.81;5034308;28;20116;-86
2021/08/01 00:10:01;;;;;;;10.10;3.30;;;;;;;23.52;41.12;101063.91;5033874;28;20029;-86
2021/08/01 00:12:27;;;;;;;7.03;2.70;;;;;;;23.36;41.53;101057.88;5034044;28;20358;-85
2021/08/01 00:14:54;;;;;;;9.88;3.75;;;;;;;23.31;41.53;101065.81;5035314;28;20029;-87
2021/08/01 00:17:20;;;;;;;4.47;2.78;;;;;;;23.53;40.82;101059.91;5035495;28;20032;-85
2021/08/01 00:19:46;;;;;;;5.15;3.10;;;;;;;23.50;40.78;101060.72;5034167;28;20025;-84
2021/08/01 00:22:11;;;;;;;5.97;3.03;;;;;;;23.49;40.80;101061.88;5033991;28;20029;-86
2021/08/01 00:24:37;;;;;;;10.27;3.42;;;;;;;23.46;40.92;101065.47;5034096;28;20108;-85
2021/08/01 00:27:03;;;;;;;6.07;3.17;;;;;;;23.43;40.80;101063.47;5035152;28;20025;-85
2021/08/01 00:29:29;;;;;;;6.65;3.08;;;;;;;23.46;40.60;101062.66;5033335;28;20117;-85
2021/08/01 00:32:00;;;;;;;8.57;4.07;;;;;;;23.31;41.19;101068.59;5035009;28;20483;-85
2021/08/01 00:34:26;;;;;;;11.25;4.10;;;;;;;23.19;41.48;101070.50;5034330;28;20627;-87
2021/08/01 00:36:51;;;;;;;6.70;3.40;;;;;;;23.15;41.34;101069.72;5034079;28;20462;-87
2021/08/01 00:39:17;;;;;;;6.13;3.00;;;;;;;23.17;41.07;101072.91;5034270;28;20029;-85
2021/08/01 00:41:43;;;;;;;8.02;3.40;;;;;;;23.21;41.17;101059.00;5034848;28;20395;-85
2021/08/01 00:44:09;;;;;;;10.10;3.30;;;;;;;23.28;41.18;101077.75;5033355;28;20083;-85
2021/08/01 00:46:34;;;;;;;9.90;3.05;;;;;;;23.29;41.30;101066.19;5034319;28;20373;-85
2021/08/01 00:49:01;;;;;;;8.02;3.40;;;;;;;23.21;41.36;101067.34;5034621;28;20575;-84
2021/08/01 00:51:31;;;;;;;5.35;3.00;;;;;;;23.30;41.10;101067.78;5034934;28;20022;-84
2021/08/01 00:54:00;;;;;;;5.30;3.28;;;;;;;23.33;41.00;101072.56;5032540;28;20087;-84
2021/08/01 00:56:26;;;;;;;6.40;2.97;;;;;;;23.36;41.10;101068.22;5033073;28;20030;-84
2021/08/01 00:58:52;;;;;;;7.07;4.00;;;;;;;23.35;41.11;101064.63;5033347;28;20079;-88
2021/08/01 01:01:26;;;;;;;9.10;3.35;;;;;;;23.28;41.28;101070.19;5033455;28;20036;-87
2021/08/01 01:04:18;;;;;;;9.82;3.60;;;;;;;23.27;41.31;101068.56;5033205;28;20027;-88
2021/08/01 01:07:02;;;;;;;10.30;3.35;;;;;;;23.26;41.34;101067.75;5034219;28;20069;-84
2021/08/01 01:09:40;;;;;;;7.90;3.85;;;;;;;23.31;40.96;101063.00;5034226;28;20026;-88
2021/08/01 01:12:11;;;;;;;8.90;3.13;;;;;;;23.33;40.69;101060.63;5033153;28;20480;-84
2021/08/01 01:14:44;;;;;;;6.63;3.67;;;;;;;23.30;40.45;101058.63;5033125;28;20502;-86
2021/08/01 01:17:13;;;;;;;7.10;3.22;;;;;;;23.26;40.40;101056.63;5032819;28;20435;-85
2021/08/01 01:20:02;;;;;;;6.28;3.15;;;;;;;23.35;40.05;101055.44;5032935;28;20022;-85
2021/08/01 01:22:39;;;;;;;5.57;3.20;;;;;;;23.31;40.31;101054.66;5033984;28;20064;-85
2021/08/01 01:25:14;;;;;;;5.60;3.85;;;;;;;23.10;40.41;101058.94;5032416;28;20087;-86
2021/08/01 01:27:48;;;;;;;8.23;3.35;;;;;;;23.28;39.75;101053.47;5033072;28;20029;-85
2021/08/01 01:30:14;;;;;;;8.50;3.92;;;;;;;23.32;39.90;101057.03;5033777;28;20032;-87
2021/08/01 01:32:55;;;;;;;7.70;3.40;;;;;;;23.33;39.98;101061.41;5033643;28;20037;-88
2021/08/01 01:35:21;;;;;;;6.95;3.28;;;;;;;23.34;39.97;101056.63;5032617;28;20033;-84
2021/08/01 01:37:51;;;;;;;6.53;4.40;;;;;;;23.36;39.83;101062.66;5033495;28;20033;-83
2021/08/01 01:40:18;;;;;;;;;;;;;;;23.47;39.37;101058.69;5034082;28;20053;-85
2021/08/01 01:42:47;;;;;;;7.22;3.92;;;;;;;23.36;39.43;101060.66;5032172;28;20329;-85
2021/08/01 01:45:18;;;;;;;5.53;3.58;;;;;;;23.35;39.27;101058.22;5032146;28;20029;-85
2021/08/01 01:47:46;;;;;;;3.97;3.20;;;;;;;23.15;39.25;101054.97;5033595;28;20029;-84
2021/08/01 01:50:12;;;;;;;7.30;3.65;;;;;;;23.10;39.44;101047.78;5033287;28;20068;-85
2021/08/01 01:52:40;;;;;;;6.93;3.83;;;;;;;23.12;39.13;101053.75;5032312;28;20392;-84
2021/08/01 01:55:06;;;;;;;6.95;3.70;;;;;;;23.17;39.04;101052.59;5032204;28;20087;-85
2021/08/01 01:57:32;;;;;;;5.30;3.53;;;;;;;23.09;38.98;101054.56;5032031;28;20025;-84
2021/08/01 02:00:01;;;;;;;4.40;3.08;;;;;;;23.11;38.93;101054.94;5033530;28;20511;-89
2021/08/01 02:02:27;;;;;;;5.50;3.83;;;;;;;23.15;38.91;101058.56;5032114;28;20492;-87
2021/08/01 02:04:52;;;;;;;6.88;4.32;;;;;;;23.10;39.18;101056.16;5031601;28;20033;-84
2021/08/01 02:07:20;;;;;;;9.73;4.15;;;;;;;23.11;39.08;101063.31;5033007;28;20040;-84
2021/08/01 02:09:59;;;;;;;5.20;3.90;;;;;;;23.07;38.82;101056.13;5032115;28;20155;-86
2021/08/01 02:12:31;;;;;;;5.75;3.65;;;;;;;23.28;38.52;101066.59;5031957;28;20392;-84
2021/08/01 02:15:12;;;;;;;4.60;3.10;;;;;;;23.35;38.56;101061.84;5032616;28;20116;-86
2021/08/01 02:17:53;;;;;;;7.18;3.22;;;;;;;23.30;38.12;101058.63;5033343;28;20037;-85
2021/08/01 02:20:23;;;;;;;6.97;3.88;;;;;;;23.28;38.01;101063.81;5033548;28;20029;-85
2021/08/01 02:22:51;;;;;;;5.63;3.28;;;;;;;23.24;37.95;101058.22;5033300;28;20407;-86
2021/08/01 02:25:19;;;;;;;6.90;3.75;;;;;;;23.19;38.02;101064.16;5031901;28;20510;-86
2021/08/01 02:27:46;;;;;;;7.88;3.55;;;;;;;23.08;38.04;101063.31;5033108;28;20037;-86
2021/08/01 02:30:13;;;;;;;7.10;3.85;;;;;;;23.15;37.74;101075.28;5032200;28;20174;-86
2021/08/01 02:32:39;;;;;;;5.95;3.47;;;;;;;23.17;37.73;101072.09;5031701;28;20034;-86
2021/08/01 02:35:07;;;;;;;8.02;3.58;;;;;;;23.20;37.54;101074.94;5034076;28;20116;-85
2021/08/01 02:37:35;;;;;;;6.22;3.35;;;;;;;23.19;37.46;101073.31;5031177;28;20506;-86
2021/08/01 02:40:01;;;;;;;9.18;3.85;;;;;;;23.14;37.64;101070.91;5032195;28;20034;-85
2021/08/01 02:42:28;;;;;;;6.80;3.33;;;;;;;23.18;37.38;101073.69;5031640;28;20056;-85
2021/08/01 02:44:57;;;;;;;6.18;3.70;;;;;;;23.12;37.61;101072.47;5048357;28;20468;-87
2021/08/01 02:47:24;;;;;;;7.20;3.37;;;;;;;23.11;37.36;101071.69;5031871;28;20057;-86
2021/08/01 02:49:51;;;;;;;5.22;3.60;;;;;;;23.02;37.48;101078.78;5031967;28;20056;-85
2021/08/01 02:52:28;;;;;;;8.93;4.38;;;;;;;23.07;37.09;101079.22;5031586;28;20033;-87
2021/08/01 02:54:54;;;;;;;6.53;3.42;;;;;;;23.09;37.29;101071.28;5048331;28;20491;-87
2021/08/01 02:57:23;;;;;;;9.55;4.13;;;;;;;23.12;37.24;101070.47;5031638;28;20026;-85
2021/08/01 02:59:49;;;;;;;7.05;3.83;;;;;;;23.16;37.48;101062.94;5031482;28;20030;-86
2021/08/01 03:02:15;;;;;;;7.28;3.45;;;;;;;23.18;37.33;101063.34;5031609;28;20025;-86
2021/08/01 03:04:42;;;;;;;6.05;3.60;;;;;;;23.24;37.32;101069.34;5031507;28;20117;-85
2021/08/01 03:07:11;;;;;;;5.18;3.60;;;;;;;23.18;37.29;101066.13;5031711;28;20506;-85
2021/08/01 03:09:37;;;;;;;5.57;3.50;;;;;;;23.26;37.23;101069.75;5031812;28;20021;-86
2021/08/01 03:12:21;;;;;;;6.90;3.47;;;;;;;23.22;36.97;101064.19;5031790;28;20048;-85
2021/08/01 03:14:46;;;;;;;7.35;3.80;;;;;;;23.14;37.19;101070.13;5031772;28;20079;-87
2021/08/01 03:17:12;;;;;;;4.45;3.22;;;;;;;23.11;37.01;101066.09;5031801;28;20033;-85
2021/08/01 03:19:39;;;;;;;5.57;2.92;;;;;;;23.08;36.98;101075.25;5032957;28;20030;-86
2021/08/01 03:22:06;;;;;;;10.85;3.05;;;;;;;23.06;36.81;101066.50;5033202;28;20027;-86
2021/08/01 03:24:32;;;;;;;5.10;3.00;;;;;;;23.01;36.68;101075.22;5034744;28;20021;-86
2021/08/01 03:26:58;;;;;;;5.03;2.95;;;;;;;22.87;37.05;101072.34;5036714;28;20029;-85
2021/08/01 03:29:24;;;;;;;6.57;3.55;;;;;;;22.84;37.21;101070.31;5035149;28;20489;-85
2021/08/01 03:31:49;;;;;;;3.83;2.80;;;;;;;22.81;37.20;101062.72;5036553;28;20465;-86
2021/08/01 03:34:15;;;;;;;4.43;2.88;;;;;;;22.67;37.45;101072.59;5036380;28;20087;-85
2021/08/01 03:36:40;;;;;;;6.80;2.92;;;;;;;22.55;37.71;101066.53;5036163;28;20108;-84
2021/08/01 03:39:06;;;;;;;5.25;2.90;;;;;;;22.73;37.29;101069.44;5036421;28;20491;-86
2021/08/01 03:41:32;;;;;;;6.97;3.40;;;;;;;22.77;37.11;101075.84;5035144;28;20029;-89
2021/08/01 03:43:58;;;;;;;5.20;3.17;;;;;;;22.75;36.92;101075.41;5034874;28;20045;-88
2021/08/01 03:46:23;;;;;;;5.03;2.70;;;;;;;22.71;36.68;101078.19;5035288;28;20080;-86
2021/08/01 03:48:49;;;;;;;5.90;3.72;;;;;;;22.69;36.72;101086.13;5035085;28;20033;-84
2021/08/01 03:51:15;;;;;;;5.55;2.92;;;;;;;22.72;36.69;101077.00;5036350;28;20029;-84
2021/08/01 03:53:41;;;;;;;9.73;3.10;;;;;;;22.75;36.52;101079.03;5051541;28;20025;-86
2021/08/01 03:56:06;;;;;;;4.60;2.83;;;;;;;22.84;36.49;101075.88;5035117;28;20083;-89
2021/08/01 03:58:32;;;;;;;5.15;3.63;;;;;;;22.78;36.73;101071.84;5036190;28;20060;-84
2021/08/01 04:00:58;;;;;;;5.47;2.50;;;;;;;22.73;36.88;101075.78;5035727;28;20469;-86
2021/08/01 04:03:24;;;;;;;8.55;2.90;;;;;;;22.68;37.27;101071.41;5035709;28;20084;-86
2021/08/01 04:05:49;;;;;;;6.47;3.10;;;;;;;22.68;36.89;101076.97;5034350;28;20492;-85
2021/08/01 04:08:15;;;;;;;6.78;3.17;;;;;;;22.61;37.37;101076.13;5051026;28;20029;-85
2021/08/01 04:10:40;;;;;;;4.13;3.03;;;;;;;22.58;37.23;101077.69;5035567;28;20033;-88
2021/08/01 04:13:06;;;;;;;4.20;2.58;;;;;;;22.56;37.32;101071.72;5035637;28;20434;-84
2021/08/01 04:15:32;;;;;;;25.25;3.53;;;;;;;22.51;37.41;101074.84;5034364;28;20124;-86
2021/08/01 04:18:02;;;;;;;5.80;3.40;;;;;;;22.68;37.19;101079.75;5034437;28;20026;-85
2021/08/01 04:20:28;;;;;;;9.23;2.90;;;;;;;22.65;37.36;101074.94;5034172;28;20029;-86
2021/08/01 04:22:54;;;;;;;5.60;3.00;;;;;;;22.65;37.09;101077.75;5034125;28;20036;-85
2021/08/01 04:25:21;;;;;;;7.22;3.35;;;;;;;22.69;37.34;101073.00;5034154;28;20064;-88
2021/08/01 04:27:47;;;;;;;4.72;2.85;;;;;;;22.75;37.05;101073.44;5035183;28;20033;-84
2021/08/01 04:30:13;;;;;;;5.15;2.63;;;;;;;22.72;37.21;101074.19;5033867;28;20033;-86
2021/08/01 04:32:38;;;;;;;5.78;3.00;;;;;;;22.70;37.12;101077.38;5050459;28;20034;-85
2021/08/01 04:35:05;;;;;;;6.85;2.90;;;;;;;22.65;37.34;101088.06;5033595;28;20450;-85
2021/08/01 04:37:31;;;;;;;4.10;2.53;;;;;;;22.62;37.12;101089.66;5033941;28;20035;-88
2021/08/01 04:39:56;;;;;;;4.47;2.90;;;;;;;22.55;37.72;101081.25;5034149;28;20112;-85
2021/08/01 04:42:22;;;;;;;4.80;2.63;;;;;;;22.59;37.29;101090.41;5035228;28;20233;-88
2021/08/01 04:44:48;;;;;;;5.57;3.17;;;;;;;22.64;36.96;101092.06;5034234;28;20029;-86
2021/08/01 04:47:14;;;;;;;3.38;2.20;;;;;;;22.36;37.25;101098.97;5034130;28;20025;-87
2021/08/01 04:49:41;;;;;;;6.28;2.75;;;;;;;22.35;37.14;101099.38;5033885;28;20448;-90
2021/08/01 04:52:07;;;;;;;3.72;2.35;;;;;;;22.39;36.82;101100.22;5033754;28;20388;-88
2021/08/01 04:54:36;;;;;;;9.38;2.42;;;;;;;22.32;37.17;101100.16;5034281;28;20034;-88
2021/08/01 04:57:05;;;;;;;6.03;2.38;;;;;;;22.34;37.00;101103.34;5035119;28;20121;-85
2021/08/01 04:59:36;;;;;;;8.75;2.42;;;;;;;22.30;37.25;101100.53;5035182;28;20036;-88
2021/08/01 05:02:03;;;;;;;5.60;2.33;;;;;;;22.30;37.07;101106.13;5033982;28;20120;-88
2021/08/01 05:04:29;;;;;;;5.97;2.55;;;;;;;22.26;36.88;101101.69;5035052;28;20021;-86
2021/08/01 05:06:55;;;;;;;4.53;2.78;;;;;;;22.29;37.00;101109.25;5033601;28;20486;-85
2021/08/01 05:09:21;;;;;;;6.15;3.00;;;;;;;22.39;36.72;101112.16;5033489;28;20112;-88
2021/08/01 05:11:46;;;;;;;5.40;2.53;;;;;;;22.35;36.76;101113.28;5050180;28;20025;-85
2021/08/01 05:14:12;;;;;;;7.57;3.08;;;;;;;22.30;36.81;101113.66;5033487;28;20096;-86
2021/08/01 05:16:37;;;;;;;6.35;2.80;;;;;;;22.35;36.71;101118.88;5033304;28;20033;-85
2021/08/01 05:19:03;;;;;;;5.63;3.05;;;;;;;22.35;36.91;101118.88;5033273;28;20032;-85
2021/08/01 05:21:30;;;;;;;5.28;2.42;;;;;;;22.40;36.69;101115.72;5034226;28;20469;-85
2021/08/01 05:23:55;;;;;;;5.53;2.60;;;;;;;22.43;36.76;101121.31;5033082;28;20069;-86
2021/08/01 05:26:21;;;;;;;7.97;2.67;;;;;;;22.40;36.93;101119.31;5034315;28;20561;-85
2021/08/01 05:28:47;;;;;;;7.57;3.15;;;;;;;22.48;36.67;101120.19;5033085;28;20033;-85
2021/08/01 05:31:12;;;;;;;5.13;2.90;;;;;;;22.50;36.76;101128.13;5032818;28;20507;-85
2021/08/01 05:33:38;;;;;;;7.18;2.90;;;;;;;22.52;36.75;101131.34;5033951;28;20034;-84
2021/08/01 05:36:11;;;;;;;8.80;2.55;;;;;;;22.51;36.57;101127.75;5033002;28;20025;-88
2021/08/01 05:38:37;;;;;;;4.53;2.50;;;;;;;22.58;36.49;101138.94;5032847;28;20028;-86
2021/08/01 05:41:03;;;;;;;3.70;2.28;;;;;;;22.44;36.73;101136.03;5032921;28;20045;-85
2021/08/01 05:43:29;;;;;;;4.80;2.83;;;;;;;22.52;36.49;101140.50;5033624;28;20049;-84
2021/08/01 05:45:55;;;;;;;7.38;2.50;;;;;;;22.61;36.37;101145.75;5033648;28;20030;-86
2021/08/01 05:48:21;;;;;;;5.72;2.45;;;;;;;22.60;36.09;101144.16;5032045;28;20083;-84
2021/08/01 05:50:47;;;;;;;4.80;2.65;;;;;;;22.69;35.84;101153.78;5032189;28;20025;-85
2021/08/01 05:53:13;;;;;;;3.70;2.25;;;;;;;22.59;36.08;101148.91;5049165;28;20041;-86
2021/08/01 05:55:38;;;;;;;4.18;2.33;;;;;;;22.70;35.82;101151.78;5032660;28;20037;-86
2021/08/01 05:58:04;;;;;;;4.95;2.67;;;;;;;22.69;35.86;101153.78;5032544;28;20037;-85
2021/08/01 06:00:29;;;;;;;7.18;2.80;;;;;;;22.75;35.45;101156.19;5033413;28;20472;-85
2021/08/01 06:02:55;;;;;;;5.90;2.67;;;;;;;22.78;35.37;101152.66;5032429;28;20598;-86
2021/08/01 06:05:20;;;;;;;7.18;2.25;;;;;;;22.73;35.51;101151.00;5032313;28;20025;-87
2021/08/01 06:07:46;;;;;;;6.00;2.20;;;;;;;22.76;35.39;101158.59;5033528;28;20033;-85
2021/08/01 06:10:12;;;;;;;4.30;2.08;;;;;;;22.78;35.36;101161.81;5032361;28;20021;-86
2021/08/01 06:12:37;;;;;;;5.82;2.30;;;;;;;22.63;35.61;101158.09;5033588;28;20041;-86
2021/08/01 06:15:04;;;;;;;5.18;2.10;;;;;;;22.93;35.04;101154.38;5033392;28;20057;-87
2021/08/01 06:17:30;;;;;;;4.90;2.30;;;;;;;23.03;34.86;101158.41;5032225;28;20377;-89
2021/08/01 06:19:56;;;;;;;3.92;2.72;;;;;;;22.99;35.17;101166.78;5033499;28;20040;-86
2021/08/01 06:22:23;;;;;;;4.72;2.88;;;;;;;22.92;35.59;101161.16;5033402;28;20468;-85
2021/08/01 06:24:48;;;;;;;5.88;3.13;;;;;;;22.97;35.43;101166.34;5033307;28;20095;-85
2021/08/01 06:27:14;;;;;;;6.78;2.42;;;;;;;23.06;35.45;101166.81;5033501;28;20543;-85
2021/08/01 06:29:39;;;;;;;4.43;2.13;;;;;;;22.92;35.57;101172.28;5032369;28;20037;-88
2021/08/01 06:32:05;;;;;;;5.53;2.67;;;;;;;23.11;35.25;101168.44;5032384;28;20032;-86
2021/08/01 06:34:31;;;;;;;5.95;2.40;;;;;;;23.19;34.77;101164.50;5032370;28;20030;-88
2021/08/01 06:36:56;;;;;;;4.72;2.28;;;;;;;23.39;34.41;101167.81;5032129;28;20036;-85
2021/08/01 06:39:22;;;;;;;8.25;3.00;;;;;;;23.45;34.21;101169.03;5032108;28;20025;-86
2021/08/01 06:41:48;;;;;;;3.33;2.17;;;;;;;23.55;34.14;101176.66;5031913;28;20458;-84
2021/08/01 06:44:14;;;;;;;6.93;3.15;;;;;;;23.51;34.30;101175.84;5032004;28;20028;-87
2021/08/01 06:46:40;;;;;;;6.53;2.92;;;;;;;23.67;34.30;101175.56;5032090;28;20120;-88
2021/08/01 06:49:05;;;;;;;5.90;2.47;;;;;;;23.54;34.20;101175.06;5032126;28;20033;-87
2021/08/01 06:51:31;;;;;;;6.88;2.30;;;;;;;23.61;33.96;101172.34;5032216;28;20033;-86
2021/08/01 06:53:56;;;;;;;4.90;2.45;;;;;;;23.67;34.03;101172.75;5031958;28;20029;-85
2021/08/01 06:56:22;;;;;;;5.32;2.60;;;;;;;23.32;34.02;101167.75;5031875;28;20469;-87
2021/08/01 06:58:48;;;;;;;6.28;2.70;;;;;;;23.71;33.44;101159.63;5031809;28;20632;-84
2021/08/01 07:01:13;;;;;;;7.93;2.60;;;;;;;23.92;33.49;101170.84;5035194;28;20476;-86
2021/08/01 07:03:39;;;;;;;6.13;2.60;;;;;;;23.80;33.62;101160.88;5035876;28;20030;-88
2021/08/01 07:06:05;;;;;;;4.05;2.47;;;;;;;23.89;33.32;101170.84;5035774;28;20094;-85
2021/08/01 07:08:31;;;;;;;3.45;2.30;;;;;;;23.86;33.35;101169.63;5036930;28;20422;-85
2021/08/01 07:10:57;;;;;;;3.47;2.13;;;;;;;23.99;33.14;101170.09;5036063;28;20026;-85
2021/08/01 07:13:22;;;;;;;7.38;2.33;;;;;;;23.95;33.13;101175.63;5035877;28;20119;-85
2021/08/01 07:15:51;;;;;;;8.55;2.90;;;;;;;24.16;33.08;101172.13;5035991;28;20025;-87
2021/08/01 07:18:17;;;;;;;9.43;3.73;;;;;;;24.15;33.02;101175.31;5035791;28;20103;-88
2021/08/01 07:20:43;;;;;;;4.20;2.40;;;;;;;24.16;33.14;101179.69;5035694;28;20057;-85
2021/08/01 07:23:09;;;;;;;2.70;1.92;;;;;;;24.08;32.98;101182.47;5035506;28;20026;-86
2021/08/01 07:25:37;;;;;;;3.17;2.20;;;;;;;24.20;32.82;101175.72;5035759;28;20061;-88
2021/08/01 07:28:04;;;;;;;9.48;2.20;;;;;;;24.39;32.73;101182.97;5052255;28;20491;-88
2021/08/01 07:30:30;;;;;;;3.22;1.98;;;;;;;24.27;32.88;101175.75;5035540;28;20508;-86
2021/08/01 07:32:56;;;;;;;3.85;2.05;;;;;;;23.99;32.81;101173.66;5035531;28;20036;-86
2021/08/01 07:35:21;;;;;;;3.80;1.95;;;;;;;23.94;33.05;101181.63;5035435;28;20033;-86
2021/08/01 07:37:47;;;;;;;8.10;2.22;;;;;;;24.25;32.29;101185.69;5035513;28;20439;-88
2021/08/01 07:40:13;;;;;;;3.63;1.73;;;;;;;24.30;32.03;101183.31;5051827;28;20080;-85
2021/08/01 07:42:39;;;;;;;6.70;1.95;;;;;;;24.26;32.27;101179.72;5035131;28;20049;-87
2021/08/01 07:45:09;;;;;;;5.85;2.50;;;;;;;24.10;32.53;101184.84;5035685;28;20029;-86
2021/08/01 07:47:34;;;;;;;4.93;1.85;;;;;;;24.27;31.86;101184.13;5051610;28;20092;-88
2021/08/01 07:50:02;;;;;;;5.95;1.70;;;;;;;24.15;32.47;101178.91;5035210;28;20029;-86
2021/08/01 07:52:27;;;;;;;4.72;1.98;;;;;;;24.22;32.34;101190.09;5035446;28;20065;-86
2021/08/01 07:54:53;;;;;;;2.45;1.67;;;;;;;24.37;32.24;101190.16;5035148;28;20068;-85
2021/08/01 07:57:30;;;;;;;4.80;1.73;;;;;;;24.48;31.88;101188.16;5044195;28;20505;-88
2021/08/01 07:59:58;;;;;;;4.13;1.90;;;;;;;24.60;31.70;101191.38;5035228;28;20029;-87
2021/08/01 08:02:25;;;;;;;3.72;1.52;;;;;;;24.63;32.02;101195.34;5035424;28;20083;-87
2021/08/01 08:04:51;;;;;;;5.35;1.58;;;;;;;24.62;31.78;101188.16;5036295;28;20030;-86
2021/08/01 08:07:17;;;;;;;4.45;2.10;;;;;;;24.66;31.55;101211.34;5035154;28;20104;-88
2021/08/01 08:09:43;;;;;;;4.75;2.17;;;;;;;24.81;31.51;101204.56;5034911;28;20136;-89
2021/08/01 08:12:09;;;;;;;7.78;2.13;;;;;;;24.88;31.85;101207.34;5035339;28;20045;-86
2021/08/01 08:14:35;;;;;;;4.47;1.90;;;;;;;24.86;31.94;101201.38;5034982;28;20022;-88
2021/08/01 08:17:04;;;;;;;5.35;1.95;;;;;;;25.03;31.98;101202.56;5035197;28;20124;-87
2021/08/01 08:19:30;;;;;;;8.48;1.83;;;;;;;25.21;31.46;101196.16;5035600;28;20095;-89
2021/08/01 08:21:59;;;;;;;4.25;2.33;;;;;;;25.19;31.81;101204.94;5036154;28;20029;-87
2021/08/01 08:24:26;;;;;;;6.30;2.30;;;;;;;25.14;31.66;101202.56;5034906;28;20026;-89
2021/08/01 08:26:52;;;;;;;3.97;1.67;;;;;;;25.18;31.47;101212.53;5034243;28;20310;-84
2021/08/01 08:29:17;;;;;;;3.95;1.80;;;;;;;25.21;31.61;101216.53;5034773;28;20100;-87
2021/08/01 08:31:50;;;;;;;4.72;2.20;;;;;;;24.93;32.10;101214.50;5035414;28;20517;-84
2021/08/01 08:34:17;;;;;;;5.10;1.98;;;;;;;24.94;31.88;101204.13;5041095;28;20033;-86
2021/08/01 08:36:47;;;;;;;4.75;2.08;;;;;;;25.16;31.81;101212.16;5043150;28;20025;-89
2021/08/01 08:39:16;;;;;;;6.70;2.00;;;;;;;25.24;31.66;101200.94;5051637;28;20035;-85
2021/08/01 08:41:42;;;;;;;4.30;2.22;;;;;;;25.18;31.55;101198.56;5054622;28;20033;-87
2021/08/01 08:44:08;;;;;;;6.90;1.75;;;;;;;25.24;31.31;101200.94;5049150;28;20049;-88
2021/08/01 08:46:35;;;;;;;5.32;1.52;;;;;;;25.23;31.11;101199.34;5040725;28;20033;-88
2021/08/01 08:49:06;;;;;;;5.15;2.17;;;;;;;25.14;31.42;101202.56;5055229;28;20415;-87
2021/08/01 08:51:38;;;;;;;9.52;2.15;;;;;;;25.33;31.21;101210.53;5053950;28;20028;-85
2021/08/01 08:54:16;;;;;;;4.75;2.00;;;;;;;25.44;30.86;101205.69;5053872;28;20128;-85
2021/08/01 08:56:45;;;;;;;7.50;2.05;;;;;;;25.51;31.20;101202.06;5034199;28;20391;-89
2021/08/01 08:59:16;;;;;;;5.80;2.23;;;;;;;25.64;31.06;101199.66;5033933;28;20034;-84
2021/08/01 09:01:42;;;;;;;5.40;2.45;;;;;;;25.69;31.02;101202.84;5035035;28;20096;-85
2021/08/01 09:04:07;;;;;;;4.28;1.77;;;;;;;25.66;30.87;101197.22;5033551;28;20128;-89
2021/08/01 09:06:33;;;;;;;4.72;1.70;;;;;;;25.73;30.41;101206.44;5033209;28;20488;-85
2021/08/01 09:08:58;;;;;;;3.33;1.67;;;;;;;25.75;30.40;101197.63;5034736;28;20036;-87
2021/08/01 09:11:24;;;;;;;3.78;2.10;;;;;;;25.88;30.20;101195.97;5033340;28;20187;-88
2021/08/01 09:13:52;;;;;;;2.70;1.67;;;;;;;25.86;30.11;101197.59;5033678;28;20034;-88
2021/08/01 09:16:20;;;;;;;5.00;1.55;;;;;;;25.95;30.28;101193.16;5034374;28;20026;-84
2021/08/01 09:18:47;;;;;;;4.50;1.58;;;;;;;26.10;30.13;101202.25;5043287;28;20035;-85
2021/08/01 09:21:33;;;;;;;7.68;2.15;;;;;;;26.03;29.98;101207.09;5041831;28;20069;-86
2021/08/01 09:24:00;;;;;;;5.80;1.88;;;;;;;26.14;30.14;101200.22;5050609;28;20025;-86
2021/08/01 09:26:47;;;;;;;2.10;1.42;;;;;;;25.57;30.04;101203.25;5053628;28;20033;-86
2021/08/01 09:29:13;;;;;;;3.15;1.60;;;;;;;26.03;30.15;101201.50;5046966;28;20495;-84
2021/08/01 09:31:38;;;;;;;5.50;1.40;;;;;;;25.85;30.13;101207.19;5044115;28;20078;-84
2021/08/01 09:34:25;;;;;;;3.83;1.90;;;;;;;26.15;29.95;101210.25;5042382;28;20443;-84
2021/08/01 09:37:30;;;;;;;5.05;2.10;;;;;;;26.12;29.79;101210.25;5044393;28;20025;-83
2021/08/01 09:40:11;;;;;;;4.38;2.10;;;;;;;26.02;30.06;101205.50;5048431;28;20037;-84
2021/08/01 09:42:42;;;;;;;5.07;1.70;;;;;;;26.12;29.72;101204.66;5032119;28;20136;-84
2021/08/01 09:45:21;;;;;;;4.00;1.25;;;;;;;26.10;30.00;101213.47;5033725;28;20608;-84
2021/08/01 09:47:48;;;;;;;5.18;1.95;;;;;;;26.13;30.37;101211.84;5027504;28;20032;-84
2021/08/01 09:50:17;;;;;;;2.90;1.45;;;;;;;26.34;29.81;101208.13;5033612;28;20025;-83
2021/08/01 09:52:43;;;;;;;7.55;2.60;;;;;;;26.45;30.04;101203.28;5032139;28;20576;-83
2021/08/01 09:55:20;;;;;;;3.10;1.58;;;;;;;26.39;29.61;101207.75;5032286;28;20032;-85
2021/08/01 09:57:50;;;;;;;5.30;2.22;;;;;;;26.47;29.82;101215.69;5031988;28;20079;-84
2021/08/01 10:00:16;;;;;;;2.03;1.60;;;;;;;26.53;29.64;101213.25;5032091;28;20025;-83
2021/08/01 10:02:42;;;;;;;5.15;1.75;;;;;;;26.61;29.58;101212.00;5040889;28;20033;-84
2021/08/01 10:05:15;;;;;;;5.82;2.05;;;;;;;26.44;29.47;101224.88;5053139;28;20028;-84
2021/08/01 10:07:45;;;;;;;4.97;2.33;;;;;;;26.40;29.78;101212.91;5035992;28;20040;-84
2021/08/01 10:10:19;;;;;;;4.07;1.23;;;;;;;26.33;29.61;101221.34;5031596;28;20053;-85
2021/08/01 10:12:52;;;;;;;4.75;1.73;;;;;;;26.49;29.37;101224.47;5031603;28;20029;-82
2021/08/01 10:15:18;;;;;;;5.40;1.75;;;;;;;26.55;29.55;101234.03;5032027;28;20029;-82
2021/08/01 10:17:43;;;;;;;4.47;2.03;;;;;;;26.65;29.85;101218.34;5031530;28;20545;-83
2021/08/01 10:20:10;;;;;;;3.60;1.63;;;;;;;26.82;29.41;101231.41;5031903;28;20029;-83
2021/08/01 10:22:38;;;;;;;2.30;1.58;;;;;;;26.76;29.17;101229.50;5031794;28;20021;-83
2021/08/01 10:25:15;;;;;;;2.33;1.33;;;;;;;26.66;28.77;101231.16;5031519;28;20384;-82
2021/08/01 10:27:44;;;;;;;3.97;1.70;;;;;;;26.62;29.14;101232.41;5031767;28;20029;-83
2021/08/01 10:30:13;;;;;;;4.50;2.15;;;;;;;26.70;29.05;101228.34;5030972;28;20029;-84
2021/08/01 10:32:43;;;;;;;3.37;1.50;;;;;;;26.93;28.74;101222.16;5032028;28;20037;-83
2021/08/01 10:35:21;;;;;;;2.08;1.35;;;;;;;27.04;29.18;101220.06;5031013;28;20274;-84
2021/08/01 10:38:00;;;;;;;6.50;1.70;;;;;;;27.26;28.97;101232.66;5031314;28;20111;-75
2021/08/01 10:40:26;;;;;;;4.05;1.50;;;;;;;27.42;28.63;101225.69;5033198;28;20025;-81
2021/08/01 10:42:55;;;;;;;4.55;1.70;;;;;;;27.48;28.45;101236.06;5032979;28;20045;-89
2021/08/01 10:45:21;;;;;;;3.50;1.83;;;;;;;27.53;28.70;101230.00;5033104;28;20033;-90
2021/08/01 10:47:51;;;;;;;4.10;1.52;;;;;;;27.57;28.69;101229.94;5033085;28;20380;-75
2021/08/01 10:50:21;;;;;;;4.13;1.90;;;;;;;27.62;28.71;101223.88;5033075;28;20104;-76
2021/08/01 10:52:47;;;;;;;4.03;1.85;;;;;;;27.82;28.63;101235.31;5032934;28;20018;-90
2021/08/01 10:55:21;;;;;;;5.18;1.80;;;;;;;27.85;28.61;101229.66;5033145;28;20038;-83
2021/08/01 10:58:13;;;;;;;9.90;2.22;;;;;;;27.83;28.47;101232.09;5033351;28;20431;-79
2021/08/01 11:01:04;;;;;;;2.70;1.92;;;;;;;27.80;28.46;101226.50;5031954;28;20025;-76
2021/08/01 11:03:35;;;;;;;2.85;1.70;;;;;;;27.85;28.50;101229.66;5032607;28;20022;-75
2021/08/01 11:06:02;;;;;;;4.78;2.10;;;;;;;27.97;28.21;101228.31;5031835;28;20037;-75
2021/08/01 11:08:28;;;;;;;6.65;2.15;;;;;;;28.01;28.53;101234.66;5031340;28;20018;-90
2021/08/01 11:11:14;;;;;;;2.95;1.73;;;;;;;27.88;28.53;101233.63;5031012;28;20021;-75
2021/08/01 11:13:42;;;;;;;7.38;2.30;;;;;;;27.87;28.81;101240.44;5031378;28;20029;-75
2021/08/01 11:16:10;;;;;;;6.22;2.17;;;;;;;27.58;29.05;101249.19;5031104;28;20017;-75
2021/08/01 11:18:38;;;;;;;3.45;1.80;;;;;;;27.73;29.01;101237.81;5030980;28;20013;-76
2021/08/01 11:21:05;;;;;;;2.72;1.60;;;;;;;27.61;29.28;101239.94;5031052;28;20036;-76
2021/08/01 11:23:48;;;;;;;6.03;1.90;;;;;;;27.47;29.79;101248.50;5032593;28;20040;-89
2021/08/01 11:26:18;;;;;;;4.30;2.22;;;;;;;27.39;29.94;101244.19;5032319;28;20075;-75
2021/08/01 11:28:48;;;;;;;4.82;2.08;;;;;;;27.39;30.03;101246.97;5031360;28;20022;-75